Kware, Nigeria
Current Conditions -  °F | °C
As of 11:00 AM on Wednesday 26 Nov 2014 (Local Time) from DRRN Reporting Station
Sand / Dust Storm Sand / Dust Storm  
Wind Chill: 88°   Ceiling: Unl
Heat Index: 88°   Visibility: 2.1mi
Dew Point: 30°   Wind: 12mph
Humidity: 13%   Direction: 120°ESE
Pressure: 29.94"   Gusts: NA
Location:  13.21°N, 5.27°E
Report Text: DRRN 261000Z 12010KT 3500 DU NSC 31/M01 Q1014 BECMG 6000
Loading
Personal Weather Stations






























Interactive Weather Map New forecast layout! Learn more

10-Day Weather Forecast

Advertisements
Track Severe Weather on mobile